sensor_id;sensor_type;location;lat;lon;timestamp;temperature;humidity
50989;DHT22;37008;52.210;21.112;2022-11-15T00:00:48;6.00;99.90
50989;DHT22;37008;52.210;21.112;2022-11-15T00:03:19;6.00;99.90
50989;DHT22;37008;52.210;21.112;2022-11-15T00:05:45;6.10;99.90
50989;DHT22;37008;52.210;21.112;2022-11-15T00:08:11;6.00;99.90
50989;DHT22;37008;52.210;21.112;2022-11-15T00:10:37;6.00;99.90
50989;DHT22;37008;52.210;21.112;2022-11-15T00:13:10;6.00;99.90
50989;DHT22;37008;52.210;21.112;2022-11-15T00:15:37;6.00;99.90
50989;DHT22;37008;52.210;21.112;2022-11-15T00:18:04;6.10;99.90
50989;DHT22;37008;52.210;21.112;2022-11-15T00:20:30;6.00;99.90
50989;DHT22;37008;52.210;21.112;2022-11-15T00:22:55;6.00;99.90
50989;DHT22;37008;52.210;21.112;2022-11-15T00:25:21;6.10;99.90
50989;DHT22;37008;52.210;21.112;2022-11-15T00:27:47;6.10;99.90
50989;DHT22;37008;52.210;21.112;2022-11-15T00:30:12;6.10;99.90
50989;DHT22;37008;52.210;21.112;2022-11-15T00:32:38;6.10;99.90
50989;DHT22;37008;52.210;21.112;2022-11-15T00:35:04;6.10;99.90
50989;DHT22;37008;52.210;21.112;2022-11-15T00:37:29;6.10;99.90
50989;DHT22;37008;52.210;21.112;2022-11-15T00:39:55;6.10;99.90
50989;DHT22;37008;52.210;21.112;2022-11-15T00:42:20;6.10;99.90
50989;DHT22;37008;52.210;21.112;2022-11-15T00:44:46;6.00;99.90
50989;DHT22;37008;52.210;21.112;2022-11-15T00:47:11;6.00;99.90
50989;DHT22;37008;52.210;21.112;2022-11-15T00:49:37;6.10;99.90
50989;DHT22;37008;52.210;21.112;2022-11-15T00:52:03;6.10;99.90
50989;DHT22;37008;52.210;21.112;2022-11-15T00:54:31;6.10;99.90
50989;DHT22;37008;52.210;21.112;2022-11-15T00:56:57;6.00;99.90
50989;DHT22;37008;52.210;21.112;2022-11-15T00:59:22;6.10;99.90
50989;DHT22;37008;52.210;21.112;2022-11-15T01:01:48;6.10;99.90
50989;DHT22;37008;52.210;21.112;2022-11-15T01:04:14;6.10;99.90
50989;DHT22;37008;52.210;21.112;2022-11-15T01:06:39;6.10;99.90
50989;DHT22;37008;52.210;21.112;2022-11-15T01:09:05;6.10;99.90
50989;DHT22;37008;52.210;21.112;2022-11-15T01:11:31;6.10;99.90
50989;DHT22;37008;52.210;21.112;2022-11-15T01:13:56;6.10;99.90
50989;DHT22;37008;52.210;21.112;2022-11-15T01:16:22;6.10;99.90
50989;DHT22;37008;52.210;21.112;2022-11-15T01:18:47;6.10;99.90
50989;DHT22;37008;52.210;21.112;2022-11-15T01:21:16;6.10;99.90
50989;DHT22;37008;52.210;21.112;2022-11-15T01:23:42;6.10;99.90
50989;DHT22;37008;52.210;21.112;2022-11-15T01:26:10;6.10;99.90
50989;DHT22;37008;52.210;21.112;2022-11-15T01:28:38;6.00;99.90
50989;DHT22;37008;52.210;21.112;2022-11-15T01:31:08;6.00;99.90
50989;DHT22;37008;52.210;21.112;2022-11-15T01:33:35;6.00;99.90
50989;DHT22;37008;52.210;21.112;2022-11-15T01:36:08;6.00;99.90
50989;DHT22;37008;52.210;21.112;2022-11-15T01:38:35;6.00;99.90
50989;DHT22;37008;52.210;21.112;2022-11-15T01:41:01;6.00;99.90
50989;DHT22;37008;52.210;21.112;2022-11-15T01:43:32;6.00;99.90
50989;DHT22;37008;52.210;21.112;2022-11-15T01:48:48;6.00;99.90
50989;DHT22;37008;52.210;21.112;2022-11-15T01:51:16;6.00;99.90
50989;DHT22;37008;52.210;21.112;2022-11-15T01:53:46;6.00;99.90
50989;DHT22;37008;52.210;21.112;2022-11-15T01:56:17;6.00;99.90
50989;DHT22;37008;52.210;21.112;2022-11-15T01:58:44;6.00;99.90
50989;DHT22;37008;52.210;21.112;2022-11-15T02:01:12;6.00;99.90
50989;DHT22;37008;52.210;21.112;2022-11-15T02:04:16;6.00;99.90
50989;DHT22;37008;52.210;21.112;2022-11-15T02:06:35;6.00;99.90
50989;DHT22;37008;52.210;21.112;2022-11-15T02:09:01;6.00;99.90
50989;DHT22;37008;52.210;21.112;2022-11-15T02:11:27;6.00;99.90
50989;DHT22;37008;52.210;21.112;2022-11-15T02:13:54;6.00;99.90
50989;DHT22;37008;52.210;21.112;2022-11-15T02:22:35;5.90;99.90
50989;DHT22;37008;52.210;21.112;2022-11-15T02:41:44;5.90;99.90
50989;DHT22;37008;52.210;21.112;2022-11-15T02:46:45;5.90;99.90
50989;DHT22;37008;52.210;21.112;2022-11-15T02:49:33;5.90;99.90
50989;DHT22;37008;52.210;21.112;2022-11-15T02:52:00;5.90;99.90
50989;DHT22;37008;52.210;21.112;2022-11-15T02:54:30;5.90;99.90
50989;DHT22;37008;52.210;21.112;2022-11-15T02:57:22;5.90;99.90
50989;DHT22;37008;52.210;21.112;2022-11-15T03:00:03;5.90;99.90
50989;DHT22;37008;52.210;21.112;2022-11-15T03:05:28;5.90;99.90
50989;DHT22;37008;52.210;21.112;2022-11-15T03:08:14;5.90;99.90
50989;DHT22;37008;52.210;21.112;2022-11-15T03:10:49;5.90;99.90
50989;DHT22;37008;52.210;21.112;2022-11-15T03:13:27;5.90;99.90
50989;DHT22;37008;52.210;21.112;2022-11-15T03:16:17;5.90;99.90
50989;DHT22;37008;52.210;21.112;2022-11-15T03:18:49;5.90;99.90
50989;DHT22;37008;52.210;21.112;2022-11-15T03:21:19;5.90;99.90
50989;DHT22;37008;52.210;21.112;2022-11-15T03:23:47;5.90;99.90
50989;DHT22;37008;52.210;21.112;2022-11-15T03:26:15;5.90;99.90
50989;DHT22;37008;52.210;21.112;2022-11-15T03:29:01;5.90;99.90
50989;DHT22;37008;52.210;21.112;2022-11-15T03:31:32;5.80;99.90
50989;DHT22;37008;52.210;21.112;2022-11-15T03:36:49;5.80;99.90
50989;DHT22;37008;52.210;21.112;2022-11-15T03:39:15;5.80;99.90
50989;DHT22;37008;52.210;21.112;2022-11-15T03:41:52;5.80;99.90
50989;DHT22;37008;52.210;21.112;2022-11-15T03:44:31;5.80;99.90
50989;DHT22;37008;52.210;21.112;2022-11-15T03:47:08;5.80;99.90
50989;DHT22;37008;52.210;21.112;2022-11-15T03:49:37;5.80;99.90
50989;DHT22;37008;52.210;21.112;2022-11-15T03:52:05;5.80;99.90
50989;DHT22;37008;52.210;21.112;2022-11-15T03:54:31;5.80;99.90
50989;DHT22;37008;52.210;21.112;2022-11-15T03:56:56;5.80;99.90
50989;DHT22;37008;52.210;21.112;2022-11-15T03:59:22;5.80;99.90
50989;DHT22;37008;52.210;21.112;2022-11-15T04:01:48;5.80;99.90
50989;DHT22;37008;52.210;21.112;2022-11-15T04:04:13;5.80;99.90
50989;DHT22;37008;52.210;21.112;2022-11-15T04:06:39;5.80;99.90
50989;DHT22;37008;52.210;21.112;2022-11-15T04:09:05;5.80;99.90
50989;DHT22;37008;52.210;21.112;2022-11-15T04:11:30;5.80;99.90
50989;DHT22;37008;52.210;21.112;2022-11-15T04:13:56;5.80;99.90
50989;DHT22;37008;52.210;21.112;2022-11-15T04:16:22;5.80;99.90
50989;DHT22;37008;52.210;21.112;2022-11-15T04:18:47;5.80;99.90
50989;DHT22;37008;52.210;21.112;2022-11-15T04:21:33;5.80;99.90
50989;DHT22;37008;52.210;21.112;2022-11-15T04:24:17;5.80;99.90
50989;DHT22;37008;52.210;21.112;2022-11-15T04:26:43;5.80;99.90
50989;DHT22;37008;52.210;21.112;2022-11-15T04:29:08;5.80;99.90
50989;DHT22;37008;52.210;21.112;2022-11-15T04:31:52;5.80;99.90
50989;DHT22;37008;52.210;21.112;2022-11-15T04:34:18;5.80;99.90
50989;DHT22;37008;52.210;21.112;2022-11-15T04:36:43;5.80;99.90
50989;DHT22;37008;52.210;21.112;2022-11-15T04:39:27;5.80;99.90
50989;DHT22;37008;52.210;21.112;2022-11-15T04:41:53;5.80;99.90
50989;DHT22;37008;52.210;21.112;2022-11-15T04:44:18;5.80;99.90
50989;DHT22;37008;52.210;21.112;2022-11-15T04:46:44;5.70;99.90
50989;DHT22;37008;52.210;21.112;2022-11-15T04:49:10;5.70;99.90
50989;DHT22;37008;52.210;21.112;2022-11-15T04:51:35;5.80;99.90
50989;DHT22;37008;52.210;21.112;2022-11-15T04:54:01;5.70;99.90
50989;DHT22;37008;52.210;21.112;2022-11-15T04:56:26;5.70;99.90
50989;DHT22;37008;52.210;21.112;2022-11-15T04:58:52;5.70;99.90
50989;DHT22;37008;52.210;21.112;2022-11-15T05:01:18;5.70;99.90
50989;DHT22;37008;52.210;21.112;2022-11-15T05:03:44;5.70;99.90
50989;DHT22;37008;52.210;21.112;2022-11-15T05:06:28;5.70;99.90
50989;DHT22;37008;52.210;21.112;2022-11-15T05:08:55;5.70;99.90
50989;DHT22;37008;52.210;21.112;2022-11-15T05:11:21;5.70;99.90
50989;DHT22;37008;52.210;21.112;2022-11-15T05:13:47;5.70;99.90
50989;DHT22;37008;52.210;21.112;2022-11-15T05:16:12;5.70;99.90
50989;DHT22;37008;52.210;21.112;2022-11-15T05:18:38;5.70;99.90
50989;DHT22;37008;52.210;21.112;2022-11-15T05:21:09;5.70;99.90
50989;DHT22;37008;52.210;21.112;2022-11-15T05:23:35;5.70;99.90
50989;DHT22;37008;52.210;21.112;2022-11-15T05:26:01;5.70;99.90
50989;DHT22;37008;52.210;21.112;2022-11-15T05:28:27;5.70;99.90
50989;DHT22;37008;52.210;21.112;2022-11-15T05:30:53;5.70;99.90
50989;DHT22;37008;52.210;21.112;2022-11-15T05:33:25;5.70;99.90
50989;DHT22;37008;52.210;21.112;2022-11-15T05:35:58;5.70;99.90
50989;DHT22;37008;52.210;21.112;2022-11-15T05:38:25;5.70;99.90
50989;DHT22;37008;52.210;21.112;2022-11-15T05:40:51;5.70;99.90
50989;DHT22;37008;52.210;21.112;2022-11-15T05:43:17;5.60;99.90
50989;DHT22;37008;52.210;21.112;2022-11-15T05:45:42;5.70;99.90
50989;DHT22;37008;52.210;21.112;2022-11-15T05:48:09;5.70;99.90
50989;DHT22;37008;52.210;21.112;2022-11-15T05:50:40;5.70;99.90
50989;DHT22;37008;52.210;21.112;2022-11-15T05:53:07;5.70;99.90
50989;DHT22;37008;52.210;21.112;2022-11-15T05:55:33;5.60;99.90
50989;DHT22;37008;52.210;21.112;2022-11-15T05:58:00;5.60;99.90
50989;DHT22;37008;52.210;21.112;2022-11-15T06:00:26;5.60;99.90
50989;DHT22;37008;52.210;21.112;2022-11-15T06:02:51;5.60;99.90
50989;DHT22;37008;52.210;21.112;2022-11-15T06:05:17;5.60;99.90
50989;DHT22;37008;52.210;21.112;2022-11-15T06:07:42;5.60;99.90
50989;DHT22;37008;52.210;21.112;2022-11-15T06:10:09;5.60;99.90
50989;DHT22;37008;52.210;21.112;2022-11-15T06:12:35;5.60;99.90
50989;DHT22;37008;52.210;21.112;2022-11-15T06:15:00;5.60;99.90
50989;DHT22;37008;52.210;21.112;2022-11-15T06:17:26;5.70;99.90
50989;DHT22;37008;52.210;21.112;2022-11-15T06:19:51;5.60;99.90
50989;DHT22;37008;52.210;21.112;2022-11-15T06:22:17;5.60;99.90
50989;DHT22;37008;52.210;21.112;2022-11-15T06:24:42;5.70;99.90
50989;DHT22;37008;52.210;21.112;2022-11-15T06:27:10;5.60;99.90
50989;DHT22;37008;52.210;21.112;2022-11-15T06:29:35;5.60;99.90
50989;DHT22;37008;52.210;21.112;2022-11-15T06:32:01;5.60;99.90
50989;DHT22;37008;52.210;21.112;2022-11-15T06:34:27;5.60;99.90
50989;DHT22;37008;52.210;21.112;2022-11-15T06:36:52;5.60;99.90
50989;DHT22;37008;52.210;21.112;2022-11-15T06:39:18;5.70;99.90
50989;DHT22;37008;52.210;21.112;2022-11-15T06:41:44;5.70;99.90
50989;DHT22;37008;52.210;21.112;2022-11-15T06:44:09;5.70;99.90
50989;DHT22;37008;52.210;21.112;2022-11-15T06:46:35;5.70;99.90
50989;DHT22;37008;52.210;21.112;2022-11-15T06:49:01;5.70;99.90
50989;DHT22;37008;52.210;21.112;2022-11-15T06:51:26;5.80;99.90
50989;DHT22;37008;52.210;21.112;2022-11-15T06:53:52;5.70;99.90
50989;DHT22;37008;52.210;21.112;2022-11-15T06:56:17;5.70;99.90
50989;DHT22;37008;52.210;21.112;2022-11-15T06:58:43;5.70;99.90
50989;DHT22;37008;52.210;21.112;2022-11-15T07:01:11;5.70;99.90
50989;DHT22;37008;52.210;21.112;2022-11-15T07:03:39;5.70;99.90
50989;DHT22;37008;52.210;21.112;2022-11-15T07:06:05;5.80;99.90
50989;DHT22;37008;52.210;21.112;2022-11-15T07:08:31;5.70;99.90
50989;DHT22;37008;52.210;21.112;2022-11-15T07:11:07;5.80;99.90
50989;DHT22;37008;52.210;21.112;2022-11-15T07:13:33;5.80;99.90
50989;DHT22;37008;52.210;21.112;2022-11-15T07:16:07;5.80;99.90
50989;DHT22;37008;52.210;21.112;2022-11-15T07:18:34;5.80;99.90
50989;DHT22;37008;52.210;21.112;2022-11-15T07:21:04;5.80;99.90
50989;DHT22;37008;52.210;21.112;2022-11-15T07:23:31;5.80;99.90
50989;DHT22;37008;52.210;21.112;2022-11-15T07:25:57;5.80;99.90
50989;DHT22;37008;52.210;21.112;2022-11-15T07:28:24;5.80;99.90
50989;DHT22;37008;52.210;21.112;2022-11-15T07:30:50;5.80;99.90
50989;DHT22;37008;52.210;21.112;2022-11-15T07:33:16;5.80;99.90
50989;DHT22;37008;52.210;21.112;2022-11-15T07:35:41;5.80;99.90
50989;DHT22;37008;52.210;21.112;2022-11-15T07:38:08;5.80;99.90
50989;DHT22;37008;52.210;21.112;2022-11-15T07:40:34;5.80;99.90
50989;DHT22;37008;52.210;21.112;2022-11-15T07:43:04;5.90;99.90
50989;DHT22;37008;52.210;21.112;2022-11-15T07:45:31;5.80;99.90
50989;DHT22;37008;52.210;21.112;2022-11-15T07:47:58;5.80;99.90
50989;DHT22;37008;52.210;21.112;2022-11-15T07:50:24;5.80;99.90
50989;DHT22;37008;52.210;21.112;2022-11-15T07:52:58;5.80;99.90
50989;DHT22;37008;52.210;21.112;2022-11-15T07:55:25;5.70;99.90
50989;DHT22;37008;52.210;21.112;2022-11-15T07:57:52;5.80;99.90
50989;DHT22;37008;52.210;21.112;2022-11-15T08:00:18;5.70;99.90
50989;DHT22;37008;52.210;21.112;2022-11-15T08:02:45;5.80;99.90
50989;DHT22;37008;52.210;21.112;2022-11-15T08:05:11;5.80;99.90
50989;DHT22;37008;52.210;21.112;2022-11-15T08:07:37;5.80;99.90
50989;DHT22;37008;52.210;21.112;2022-11-15T08:10:04;5.80;99.90
50989;DHT22;37008;52.210;21.112;2022-11-15T08:12:31;5.90;99.90
50989;DHT22;37008;52.210;21.112;2022-11-15T08:14:57;5.90;99.90
50989;DHT22;37008;52.210;21.112;2022-11-15T08:17:23;5.90;99.90
50989;DHT22;37008;52.210;21.112;2022-11-15T08:19:49;5.90;99.90
50989;DHT22;37008;52.210;21.112;2022-11-15T08:22:14;5.90;99.90
50989;DHT22;37008;52.210;21.112;2022-11-15T08:24:40;6.00;99.90
50989;DHT22;37008;52.210;21.112;2022-11-15T08:27:06;5.90;99.90
50989;DHT22;37008;52.210;21.112;2022-11-15T08:29:43;6.00;99.90
50989;DHT22;37008;52.210;21.112;2022-11-15T08:32:09;6.00;99.90
50989;DHT22;37008;52.210;21.112;2022-11-15T08:34:35;6.10;99.90
50989;DHT22;37008;52.210;21.112;2022-11-15T08:37:00;6.10;99.90
50989;DHT22;37008;52.210;21.112;2022-11-15T08:39:26;6.10;99.90
50989;DHT22;37008;52.210;21.112;2022-11-15T08:41:51;6.20;99.90
50989;DHT22;37008;52.210;21.112;2022-11-15T08:44:17;6.20;99.90
50989;DHT22;37008;52.210;21.112;2022-11-15T08:46:45;6.20;99.90
50989;DHT22;37008;52.210;21.112;2022-11-15T08:49:11;6.20;99.90
50989;DHT22;37008;52.210;21.112;2022-11-15T08:51:37;6.20;99.90
50989;DHT22;37008;52.210;21.112;2022-11-15T08:54:02;6.20;99.90
50989;DHT22;37008;52.210;21.112;2022-11-15T08:56:28;6.20;99.90
50989;DHT22;37008;52.210;21.112;2022-11-15T08:58:53;6.20;99.90
50989;DHT22;37008;52.210;21.112;2022-11-15T09:01:20;6.20;99.90
50989;DHT22;37008;52.210;21.112;2022-11-15T09:03:46;6.20;99.90
50989;DHT22;37008;52.210;21.112;2022-11-15T09:06:13;6.30;99.90
50989;DHT22;37008;52.210;21.112;2022-11-15T09:08:39;6.30;99.90
50989;DHT22;37008;52.210;21.112;2022-11-15T09:11:06;6.30;99.90
50989;DHT22;37008;52.210;21.112;2022-11-15T09:13:32;6.30;99.90
50989;DHT22;37008;52.210;21.112;2022-11-15T09:15:59;6.40;99.90
50989;DHT22;37008;52.210;21.112;2022-11-15T09:18:25;6.50;99.90
50989;DHT22;37008;52.210;21.112;2022-11-15T09:20:51;6.50;99.90
50989;DHT22;37008;52.210;21.112;2022-11-15T09:23:16;6.50;99.90
50989;DHT22;37008;52.210;21.112;2022-11-15T09:25:42;6.50;99.90
50989;DHT22;37008;52.210;21.112;2022-11-15T09:28:08;6.50;99.90
50989;DHT22;37008;52.210;21.112;2022-11-15T09:30:34;6.60;99.90
50989;DHT22;37008;52.210;21.112;2022-11-15T09:33:09;6.60;99.90
50989;DHT22;37008;52.210;21.112;2022-11-15T09:35:35;6.50;99.90
50989;DHT22;37008;52.210;21.112;2022-11-15T09:38:01;6.50;99.90
50989;DHT22;37008;52.210;21.112;2022-11-15T09:40:29;6.60;99.90
50989;DHT22;37008;52.210;21.112;2022-11-15T09:43:07;6.50;99.90
50989;DHT22;37008;52.210;21.112;2022-11-15T09:48:49;6.60;99.90
50989;DHT22;37008;52.210;21.112;2022-11-15T09:51:36;6.60;99.90
50989;DHT22;37008;52.210;21.112;2022-11-15T09:56:34;6.70;99.90
50989;DHT22;37008;52.210;21.112;2022-11-15T09:59:29;6.70;99.90
50989;DHT22;37008;52.210;21.112;2022-11-15T10:04:57;6.70;99.90
50989;DHT22;37008;52.210;21.112;2022-11-15T10:07:45;6.70;99.90
50989;DHT22;37008;52.210;21.112;2022-11-15T10:12:47;6.70;99.90
50989;DHT22;37008;52.210;21.112;2022-11-15T10:15:16;6.70;99.90
50989;DHT22;37008;52.210;21.112;2022-11-15T10:20:24;6.70;99.90
50989;DHT22;37008;52.210;21.112;2022-11-15T10:22:59;6.70;99.90
50989;DHT22;37008;52.210;21.112;2022-11-15T10:25:28;6.70;99.90
50989;DHT22;37008;52.210;21.112;2022-11-15T10:27:57;6.60;99.90
50989;DHT22;37008;52.210;21.112;2022-11-15T10:30:29;6.70;99.90
50989;DHT22;37008;52.210;21.112;2022-11-15T10:32:55;6.70;99.90
50989;DHT22;37008;52.210;21.112;2022-11-15T10:35:29;6.70;99.90
50989;DHT22;37008;52.210;21.112;2022-11-15T10:38:10;6.70;99.90
50989;DHT22;37008;52.210;21.112;2022-11-15T10:40:36;6.60;99.90
50989;DHT22;37008;52.210;21.112;2022-11-15T10:43:15;6.60;99.90
50989;DHT22;37008;52.210;21.112;2022-11-15T10:45:41;6.60;99.90
50989;DHT22;37008;52.210;21.112;2022-11-15T10:50:49;6.60;99.90
50989;DHT22;37008;52.210;21.112;2022-11-15T10:55:49;6.60;99.90
50989;DHT22;37008;52.210;21.112;2022-11-15T10:58:38;6.60;99.90
50989;DHT22;37008;52.210;21.112;2022-11-15T11:01:19;6.70;99.90
50989;DHT22;37008;52.210;21.112;2022-11-15T11:04:01;6.60;99.90
50989;DHT22;37008;52.210;21.112;2022-11-15T11:06:27;6.60;99.90
50989;DHT22;37008;52.210;21.112;2022-11-15T11:08:59;6.70;99.90
50989;DHT22;37008;52.210;21.112;2022-11-15T11:11:47;6.70;99.90
50989;DHT22;37008;52.210;21.112;2022-11-15T11:14:25;6.80;99.90
50989;DHT22;37008;52.210;21.112;2022-11-15T11:17:22;6.80;99.90
50989;DHT22;37008;52.210;21.112;2022-11-15T11:20:08;6.80;99.90
50989;DHT22;37008;52.210;21.112;2022-11-15T11:28:45;6.90;99.90
50989;DHT22;37008;52.210;21.112;2022-11-15T11:47:40;6.90;99.90
50989;DHT22;37008;52.210;21.112;2022-11-15T11:50:22;7.00;99.90
50989;DHT22;37008;52.210;21.112;2022-11-15T12:00:51;7.00;99.90
50989;DHT22;37008;52.210;21.112;2022-11-15T12:04:25;7.00;99.90
50989;DHT22;37008;52.210;21.112;2022-11-15T12:14:01;7.10;99.90
50989;DHT22;37008;52.210;21.112;2022-11-15T12:16:30;7.20;99.90
50989;DHT22;37008;52.210;21.112;2022-11-15T12:19:00;7.30;99.90
50989;DHT22;37008;52.210;21.112;2022-11-15T12:24:00;7.30;99.90
50989;DHT22;37008;52.210;21.112;2022-11-15T12:26:41;7.30;99.90
50989;DHT22;37008;52.210;21.112;2022-11-15T12:29:41;7.30;99.90
50989;DHT22;37008;52.210;21.112;2022-11-15T12:34:49;7.30;99.90
50989;DHT22;37008;52.210;21.112;2022-11-15T12:42:40;7.30;99.90
50989;DHT22;37008;52.210;21.112;2022-11-15T12:47:50;7.20;99.90
50989;DHT22;37008;52.210;21.112;2022-11-15T12:50:16;7.30;99.90
50989;DHT22;37008;52.210;21.112;2022-11-15T13:07:05;7.30;99.90
50989;DHT22;37008;52.210;21.112;2022-11-15T13:12:02;7.30;99.90
50989;DHT22;37008;52.210;21.112;2022-11-15T13:14:44;7.10;99.90
50989;DHT22;37008;52.210;21.112;2022-11-15T13:22:24;6.90;99.90
50989;DHT22;37008;52.210;21.112;2022-11-15T13:27:53;6.90;99.90
50989;DHT22;37008;52.210;21.112;2022-11-15T13:30:25;6.90;99.90
50989;DHT22;37008;52.210;21.112;2022-11-15T13:32:52;6.80;99.90
50989;DHT22;37008;52.210;21.112;2022-11-15T13:35:24;6.80;99.90
50989;DHT22;37008;52.210;21.112;2022-11-15T13:37:50;6.80;99.90
50989;DHT22;37008;52.210;21.112;2022-11-15T13:40:24;6.80;99.90
50989;DHT22;37008;52.210;21.112;2022-11-15T13:42:50;6.80;99.90
50989;DHT22;37008;52.210;21.112;2022-11-15T13:45:17;6.80;99.90
50989;DHT22;37008;52.210;21.112;2022-11-15T13:47:43;6.90;99.90
50989;DHT22;37008;52.210;21.112;2022-11-15T13:50:13;6.90;99.90
50989;DHT22;37008;52.210;21.112;2022-11-15T13:52:41;6.90;99.90
50989;DHT22;37008;52.210;21.112;2022-11-15T13:55:20;6.90;99.90
50989;DHT22;37008;52.210;21.112;2022-11-15T13:57:56;6.90;99.90
50989;DHT22;37008;52.210;21.112;2022-11-15T14:00:26;6.90;99.90
50989;DHT22;37008;52.210;21.112;2022-11-15T14:02:54;6.90;99.90
50989;DHT22;37008;52.210;21.112;2022-11-15T14:05:22;7.00;99.90
50989;DHT22;37008;52.210;21.112;2022-11-15T14:07:59;6.90;99.90
50989;DHT22;37008;52.210;21.112;2022-11-15T14:10:30;6.90;99.90
50989;DHT22;37008;52.210;21.112;2022-11-15T14:12:57;6.90;99.90
50989;DHT22;37008;52.210;21.112;2022-11-15T14:17:54;6.80;99.90
50989;DHT22;37008;52.210;21.112;2022-11-15T14:20:36;6.90;99.90
50989;DHT22;37008;52.210;21.112;2022-11-15T14:23:24;6.80;99.90
50989;DHT22;37008;52.210;21.112;2022-11-15T14:25:57;6.80;99.90
50989;DHT22;37008;52.210;21.112;2022-11-15T14:30:50;6.80;99.90
50989;DHT22;37008;52.210;21.112;2022-11-15T14:33:35;6.80;99.90
50989;DHT22;37008;52.210;21.112;2022-11-15T14:36:19;6.80;99.90
50989;DHT22;37008;52.210;21.112;2022-11-15T14:38:46;6.70;99.90
50989;DHT22;37008;52.210;21.112;2022-11-15T14:41:23;6.70;99.90
50989;DHT22;37008;52.210;21.112;2022-11-15T14:43:50;6.70;99.90
50989;DHT22;37008;52.210;21.112;2022-11-15T14:46:16;6.60;99.90
50989;DHT22;37008;52.210;21.112;2022-11-15T14:48:41;6.60;99.90
50989;DHT22;37008;52.210;21.112;2022-11-15T14:51:17;6.60;99.90
50989;DHT22;37008;52.210;21.112;2022-11-15T14:53:43;6.60;99.90
50989;DHT22;37008;52.210;21.112;2022-11-15T14:56:09;6.50;99.90
50989;DHT22;37008;52.210;21.112;2022-11-15T14:58:35;6.50;99.90
50989;DHT22;37008;52.210;21.112;2022-11-15T15:01:03;6.50;99.90
50989;DHT22;37008;52.210;21.112;2022-11-15T15:03:35;6.50;99.90
50989;DHT22;37008;52.210;21.112;2022-11-15T15:06:01;6.50;99.90
50989;DHT22;37008;52.210;21.112;2022-11-15T15:08:26;6.40;99.90
50989;DHT22;37008;52.210;21.112;2022-11-15T15:10:53;6.40;99.90
50989;DHT22;37008;52.210;21.112;2022-11-15T15:13:23;6.30;99.90
50989;DHT22;37008;52.210;21.112;2022-11-15T15:15:50;6.40;99.90
50989;DHT22;37008;52.210;21.112;2022-11-15T15:18:17;6.40;99.90
50989;DHT22;37008;52.210;21.112;2022-11-15T15:20:44;6.30;99.90
50989;DHT22;37008;52.210;21.112;2022-11-15T15:23:16;6.30;99.90
50989;DHT22;37008;52.210;21.112;2022-11-15T15:25:42;6.40;99.90
50989;DHT22;37008;52.210;21.112;2022-11-15T15:28:08;6.30;99.90
50989;DHT22;37008;52.210;21.112;2022-11-15T15:30:34;6.30;99.90
50989;DHT22;37008;52.210;21.112;2022-11-15T15:33:00;6.30;99.90
50989;DHT22;37008;52.210;21.112;2022-11-15T15:35:31;6.30;99.90
50989;DHT22;37008;52.210;21.112;2022-11-15T15:37:57;6.20;99.90
50989;DHT22;37008;52.210;21.112;2022-11-15T15:40:24;6.20;99.90
50989;DHT22;37008;52.210;21.112;2022-11-15T15:42:51;6.20;99.90
50989;DHT22;37008;52.210;21.112;2022-11-15T15:45:18;6.20;99.90
50989;DHT22;37008;52.210;21.112;2022-11-15T15:47:44;6.20;99.90
50989;DHT22;37008;52.210;21.112;2022-11-15T15:52:44;6.10;99.90
50989;DHT22;37008;52.210;21.112;2022-11-15T15:55:10;6.10;99.90
50989;DHT22;37008;52.210;21.112;2022-11-15T15:57:35;6.10;99.90
50989;DHT22;37008;52.210;21.112;2022-11-15T16:00:03;6.10;99.90
50989;DHT22;37008;52.210;21.112;2022-11-15T16:02:29;6.00;99.90
50989;DHT22;37008;52.210;21.112;2022-11-15T16:04:54;6.00;99.90
50989;DHT22;37008;52.210;21.112;2022-11-15T16:07:22;6.00;99.90
50989;DHT22;37008;52.210;21.112;2022-11-15T16:09:49;6.00;99.90
50989;DHT22;37008;52.210;21.112;2022-11-15T16:12:41;6.00;99.90
50989;DHT22;37008;52.210;21.112;2022-11-15T16:15:08;6.00;99.90
50989;DHT22;37008;52.210;21.112;2022-11-15T16:17:37;5.90;99.90
50989;DHT22;37008;52.210;21.112;2022-11-15T16:20:04;6.00;99.90
50989;DHT22;37008;52.210;21.112;2022-11-15T16:22:30;5.90;99.90
50989;DHT22;37008;52.210;21.112;2022-11-15T16:24:56;5.90;99.90
50989;DHT22;37008;52.210;21.112;2022-11-15T16:27:22;5.90;99.90
50989;DHT22;37008;52.210;21.112;2022-11-15T16:29:47;5.90;99.90
50989;DHT22;37008;52.210;21.112;2022-11-15T16:32:14;5.90;99.90
50989;DHT22;37008;52.210;21.112;2022-11-15T16:34:40;5.80;99.90
50989;DHT22;37008;52.210;21.112;2022-11-15T16:37:13;5.80;99.90
50989;DHT22;37008;52.210;21.112;2022-11-15T16:39:44;5.80;99.90
50989;DHT22;37008;52.210;21.112;2022-11-15T16:42:09;5.90;99.90
50989;DHT22;37008;52.210;21.112;2022-11-15T16:44:35;5.90;99.90
50989;DHT22;37008;52.210;21.112;2022-11-15T16:47:01;5.90;99.90
50989;DHT22;37008;52.210;21.112;2022-11-15T16:49:26;5.80;99.90
50989;DHT22;37008;52.210;21.112;2022-11-15T16:51:52;5.80;99.90
50989;DHT22;37008;52.210;21.112;2022-11-15T16:54:18;5.80;99.90
50989;DHT22;37008;52.210;21.112;2022-11-15T16:56:43;5.70;99.90
50989;DHT22;37008;52.210;21.112;2022-11-15T16:59:14;5.70;99.90
50989;DHT22;37008;52.210;21.112;2022-11-15T17:01:41;5.70;99.90
50989;DHT22;37008;52.210;21.112;2022-11-15T17:04:18;5.60;99.90
50989;DHT22;37008;52.210;21.112;2022-11-15T17:06:46;5.60;99.90
50989;DHT22;37008;52.210;21.112;2022-11-15T17:09:18;5.60;99.90
50989;DHT22;37008;52.210;21.112;2022-11-15T17:11:44;5.60;99.90
50989;DHT22;37008;52.210;21.112;2022-11-15T17:14:10;5.70;99.90
50989;DHT22;37008;52.210;21.112;2022-11-15T17:16:37;5.60;99.90
50989;DHT22;37008;52.210;21.112;2022-11-15T17:19:16;5.60;99.90
50989;DHT22;37008;52.210;21.112;2022-11-15T17:21:43;5.50;99.90
50989;DHT22;37008;52.210;21.112;2022-11-15T17:24:10;5.50;99.90
50989;DHT22;37008;52.210;21.112;2022-11-15T17:26:36;5.50;99.90
50989;DHT22;37008;52.210;21.112;2022-11-15T17:29:02;5.50;99.90
50989;DHT22;37008;52.210;21.112;2022-11-15T17:31:29;5.60;99.90
50989;DHT22;37008;52.210;21.112;2022-11-15T17:33:56;5.60;99.90
50989;DHT22;37008;52.210;21.112;2022-11-15T17:36:21;5.60;99.90
50989;DHT22;37008;52.210;21.112;2022-11-15T17:38:47;5.50;99.90
50989;DHT22;37008;52.210;21.112;2022-11-15T17:41:17;5.50;99.90
50989;DHT22;37008;52.210;21.112;2022-11-15T17:43:44;5.60;99.90
50989;DHT22;37008;52.210;21.112;2022-11-15T17:46:15;5.50;99.90
50989;DHT22;37008;52.210;21.112;2022-11-15T17:48:42;5.50;99.90
50989;DHT22;37008;52.210;21.112;2022-11-15T17:51:11;5.50;99.90
50989;DHT22;37008;52.210;21.112;2022-11-15T17:53:39;5.50;99.90
50989;DHT22;37008;52.210;21.112;2022-11-15T17:56:07;5.40;99.90
50989;DHT22;37008;52.210;21.112;2022-11-15T17:58:34;5.40;99.90